Terminal Aerodrome Forecast
Issued by NWS Cleveland, OH

Home | Current Version | Previous Version | Graphics & Text | Print | Product List | Glossary On
Versions: 1 2 3 4 5 6 7 8 9 10 11 12 13 14 15 16 17 18 19 20
000
FTUS41 KCLE 151455 AAA
TAFMFD
TAF AMD
KMFD 151455Z 1515/1612 18006KT P6SM OVC040
     FM151800 23012G20KT P6SM VCSH OVC020
      TEMPO 1518/1521 4SM -SHSN OVC015
     FM152300 25013KT P6SM SCT015 OVC030=

USA.gov is the U.S. government's official web portal to all federal, state and local government web resources and services.